sensor_id;sensor_type;location;lat;lon;timestamp;temperature;humidity
12053;DHT22;6087;48.982;12.064;2023-05-08T00:00:30;15.00;31.10
12053;DHT22;6087;48.982;12.064;2023-05-08T00:02:57;15.00;31.10
12053;DHT22;6087;48.982;12.064;2023-05-08T00:05:24;15.00;31.20
12053;DHT22;6087;48.982;12.064;2023-05-08T00:07:52;15.00;31.40
12053;DHT22;6087;48.982;12.064;2023-05-08T00:10:26;14.90;31.50
12053;DHT22;6087;48.982;12.064;2023-05-08T00:12:53;14.80;31.20
12053;DHT22;6087;48.982;12.064;2023-05-08T00:15:20;14.80;31.50
12053;DHT22;6087;48.982;12.064;2023-05-08T00:17:47;14.80;31.60
12053;DHT22;6087;48.982;12.064;2023-05-08T00:20:14;14.80;31.60
12053;DHT22;6087;48.982;12.064;2023-05-08T00:22:40;14.80;31.70
12053;DHT22;6087;48.982;12.064;2023-05-08T00:25:09;14.70;31.80
12053;DHT22;6087;48.982;12.064;2023-05-08T00:27:36;14.70;31.70
12053;DHT22;6087;48.982;12.064;2023-05-08T00:30:03;14.70;31.90
12053;DHT22;6087;48.982;12.064;2023-05-08T00:32:30;14.60;31.60
12053;DHT22;6087;48.982;12.064;2023-05-08T00:34:57;14.60;31.90
12053;DHT22;6087;48.982;12.064;2023-05-08T00:37:24;14.60;31.80
12053;DHT22;6087;48.982;12.064;2023-05-08T00:39:51;14.50;32.10
12053;DHT22;6087;48.982;12.064;2023-05-08T00:42:19;14.50;32.20
12053;DHT22;6087;48.982;12.064;2023-05-08T00:44:46;14.50;32.30
12053;DHT22;6087;48.982;12.064;2023-05-08T00:47:13;14.50;32.30
12053;DHT22;6087;48.982;12.064;2023-05-08T00:49:40;14.40;32.40
12053;DHT22;6087;48.982;12.064;2023-05-08T00:52:08;14.40;32.60
12053;DHT22;6087;48.982;12.064;2023-05-08T00:54:36;14.40;32.60
12053;DHT22;6087;48.982;12.064;2023-05-08T00:57:05;14.30;32.60
12053;DHT22;6087;48.982;12.064;2023-05-08T00:59:35;14.30;32.90
12053;DHT22;6087;48.982;12.064;2023-05-08T01:02:03;14.30;33.30
12053;DHT22;6087;48.982;12.064;2023-05-08T01:04:31;14.20;33.20
12053;DHT22;6087;48.982;12.064;2023-05-08T01:07:00;14.20;33.40
12053;DHT22;6087;48.982;12.064;2023-05-08T01:09:27;14.20;33.60
12053;DHT22;6087;48.982;12.064;2023-05-08T01:11:59;14.20;33.40
12053;DHT22;6087;48.982;12.064;2023-05-08T01:14:35;14.20;33.70
12053;DHT22;6087;48.982;12.064;2023-05-08T01:17:09;14.20;33.70
12053;DHT22;6087;48.982;12.064;2023-05-08T01:19:57;14.10;33.80
12053;DHT22;6087;48.982;12.064;2023-05-08T01:22:40;14.10;33.70
12053;DHT22;6087;48.982;12.064;2023-05-08T01:31:46;14.00;34.30
12053;DHT22;6087;48.982;12.064;2023-05-08T01:34:21;14.10;34.20
12053;DHT22;6087;48.982;12.064;2023-05-08T01:36:52;14.00;34.40
12053;DHT22;6087;48.982;12.064;2023-05-08T01:39:31;13.90;34.40
12053;DHT22;6087;48.982;12.064;2023-05-08T01:42:16;14.00;34.60
12053;DHT22;6087;48.982;12.064;2023-05-08T01:44:48;14.00;34.70
12053;DHT22;6087;48.982;12.064;2023-05-08T01:47:19;13.90;34.70
12053;DHT22;6087;48.982;12.064;2023-05-08T01:49:57;13.90;34.60
12053;DHT22;6087;48.982;12.064;2023-05-08T01:52:31;13.90;34.50
12053;DHT22;6087;48.982;12.064;2023-05-08T01:55:02;13.90;34.40
12053;DHT22;6087;48.982;12.064;2023-05-08T01:57:32;13.90;34.70
12053;DHT22;6087;48.982;12.064;2023-05-08T02:00:01;13.80;35.00
12053;DHT22;6087;48.982;12.064;2023-05-08T02:02:30;13.80;34.60
12053;DHT22;6087;48.982;12.064;2023-05-08T02:05:02;13.80;35.60
12053;DHT22;6087;48.982;12.064;2023-05-08T02:07:31;13.80;35.20
12053;DHT22;6087;48.982;12.064;2023-05-08T02:10:03;13.80;34.90
12053;DHT22;6087;48.982;12.064;2023-05-08T02:12:31;13.70;34.80
12053;DHT22;6087;48.982;12.064;2023-05-08T02:14:59;13.70;34.90
12053;DHT22;6087;48.982;12.064;2023-05-08T02:17:27;13.70;34.80
12053;DHT22;6087;48.982;12.064;2023-05-08T02:19:58;13.70;35.10
12053;DHT22;6087;48.982;12.064;2023-05-08T02:22:27;13.70;34.90
12053;DHT22;6087;48.982;12.064;2023-05-08T02:24:55;13.60;35.10
12053;DHT22;6087;48.982;12.064;2023-05-08T02:27:25;13.60;35.30
12053;DHT22;6087;48.982;12.064;2023-05-08T02:29:54;13.50;35.10
12053;DHT22;6087;48.982;12.064;2023-05-08T02:32:22;13.60;35.40
12053;DHT22;6087;48.982;12.064;2023-05-08T02:34:52;13.50;35.20
12053;DHT22;6087;48.982;12.064;2023-05-08T02:37:21;13.50;35.40
12053;DHT22;6087;48.982;12.064;2023-05-08T02:39:50;13.40;35.20
12053;DHT22;6087;48.982;12.064;2023-05-08T02:42:19;13.40;35.40
12053;DHT22;6087;48.982;12.064;2023-05-08T02:44:46;13.40;35.70
12053;DHT22;6087;48.982;12.064;2023-05-08T02:47:17;13.30;35.50
12053;DHT22;6087;48.982;12.064;2023-05-08T02:49:50;13.30;36.00
12053;DHT22;6087;48.982;12.064;2023-05-08T02:52:24;13.30;36.20
12053;DHT22;6087;48.982;12.064;2023-05-08T02:54:56;13.20;36.30
12053;DHT22;6087;48.982;12.064;2023-05-08T02:57:32;13.20;36.70
12053;DHT22;6087;48.982;12.064;2023-05-08T03:00:06;13.20;37.00
12053;DHT22;6087;48.982;12.064;2023-05-08T03:02:41;13.10;37.10
12053;DHT22;6087;48.982;12.064;2023-05-08T03:05:12;13.10;36.90
12053;DHT22;6087;48.982;12.064;2023-05-08T03:07:43;13.10;37.10
12053;DHT22;6087;48.982;12.064;2023-05-08T03:10:11;13.00;37.20
12053;DHT22;6087;48.982;12.064;2023-05-08T03:12:44;13.10;37.50
12053;DHT22;6087;48.982;12.064;2023-05-08T03:15:17;13.10;37.60
12053;DHT22;6087;48.982;12.064;2023-05-08T03:17:45;13.00;37.60
12053;DHT22;6087;48.982;12.064;2023-05-08T03:20:16;13.00;37.80
12053;DHT22;6087;48.982;12.064;2023-05-08T03:22:46;13.00;37.80
12053;DHT22;6087;48.982;12.064;2023-05-08T03:25:16;13.00;37.70
12053;DHT22;6087;48.982;12.064;2023-05-08T03:27:44;12.90;37.70
12053;DHT22;6087;48.982;12.064;2023-05-08T03:30:12;12.90;38.00
12053;DHT22;6087;48.982;12.064;2023-05-08T03:32:41;12.90;38.20
12053;DHT22;6087;48.982;12.064;2023-05-08T03:35:10;12.90;38.40
12053;DHT22;6087;48.982;12.064;2023-05-08T03:37:37;12.80;38.80
12053;DHT22;6087;48.982;12.064;2023-05-08T03:40:07;12.80;38.90
12053;DHT22;6087;48.982;12.064;2023-05-08T03:42:34;12.80;38.70
12053;DHT22;6087;48.982;12.064;2023-05-08T03:45:03;12.80;39.00
12053;DHT22;6087;48.982;12.064;2023-05-08T03:47:30;12.80;39.50
12053;DHT22;6087;48.982;12.064;2023-05-08T03:49:58;12.80;39.90
12053;DHT22;6087;48.982;12.064;2023-05-08T03:52:25;12.80;39.90
12053;DHT22;6087;48.982;12.064;2023-05-08T03:54:52;12.80;39.60
12053;DHT22;6087;48.982;12.064;2023-05-08T03:57:21;12.80;39.80
12053;DHT22;6087;48.982;12.064;2023-05-08T03:59:53;12.80;40.20
12053;DHT22;6087;48.982;12.064;2023-05-08T04:02:30;12.80;40.20
12053;DHT22;6087;48.982;12.064;2023-05-08T04:05:04;12.70;40.40
12053;DHT22;6087;48.982;12.064;2023-05-08T04:07:40;12.70;40.80
12053;DHT22;6087;48.982;12.064;2023-05-08T04:10:12;12.80;41.00
12053;DHT22;6087;48.982;12.064;2023-05-08T04:12:53;12.70;40.60
12053;DHT22;6087;48.982;12.064;2023-05-08T04:15:25;12.70;41.00
12053;DHT22;6087;48.982;12.064;2023-05-08T04:17:54;12.70;41.20
12053;DHT22;6087;48.982;12.064;2023-05-08T04:20:25;12.70;41.60
12053;DHT22;6087;48.982;12.064;2023-05-08T04:22:54;12.70;41.80
12053;DHT22;6087;48.982;12.064;2023-05-08T04:25:21;12.70;41.50
12053;DHT22;6087;48.982;12.064;2023-05-08T04:27:50;12.70;41.60
12053;DHT22;6087;48.982;12.064;2023-05-08T04:30:18;12.70;41.70
12053;DHT22;6087;48.982;12.064;2023-05-08T04:32:45;12.70;41.40
12053;DHT22;6087;48.982;12.064;2023-05-08T04:35:13;12.70;41.50
12053;DHT22;6087;48.982;12.064;2023-05-08T04:37:41;12.70;41.60
12053;DHT22;6087;48.982;12.064;2023-05-08T04:40:09;12.70;41.70
12053;DHT22;6087;48.982;12.064;2023-05-08T04:42:36;12.70;41.50
12053;DHT22;6087;48.982;12.064;2023-05-08T04:45:06;12.70;41.50
12053;DHT22;6087;48.982;12.064;2023-05-08T04:47:33;12.70;42.10
12053;DHT22;6087;48.982;12.064;2023-05-08T04:50:00;12.70;42.20
12053;DHT22;6087;48.982;12.064;2023-05-08T04:52:27;12.70;42.40
12053;DHT22;6087;48.982;12.064;2023-05-08T04:54:54;12.60;42.30
12053;DHT22;6087;48.982;12.064;2023-05-08T04:57:20;12.60;42.80
12053;DHT22;6087;48.982;12.064;2023-05-08T04:59:47;12.60;42.80
12053;DHT22;6087;48.982;12.064;2023-05-08T05:02:15;12.70;42.90
12053;DHT22;6087;48.982;12.064;2023-05-08T05:04:45;12.70;43.00
12053;DHT22;6087;48.982;12.064;2023-05-08T05:07:12;12.70;42.90
12053;DHT22;6087;48.982;12.064;2023-05-08T05:09:39;12.70;43.00
12053;DHT22;6087;48.982;12.064;2023-05-08T05:12:06;12.70;43.00
12053;DHT22;6087;48.982;12.064;2023-05-08T05:14:33;12.70;42.80
12053;DHT22;6087;48.982;12.064;2023-05-08T05:17:00;12.70;43.00
12053;DHT22;6087;48.982;12.064;2023-05-08T05:19:28;12.70;43.50
12053;DHT22;6087;48.982;12.064;2023-05-08T05:21:55;12.80;43.60
12053;DHT22;6087;48.982;12.064;2023-05-08T05:24:21;12.80;43.80
12053;DHT22;6087;48.982;12.064;2023-05-08T05:26:48;12.70;43.70
12053;DHT22;6087;48.982;12.064;2023-05-08T05:29:15;12.80;44.10
12053;DHT22;6087;48.982;12.064;2023-05-08T05:31:42;12.70;44.00
12053;DHT22;6087;48.982;12.064;2023-05-08T05:34:09;12.80;44.80
12053;DHT22;6087;48.982;12.064;2023-05-08T05:36:40;12.80;44.10
12053;DHT22;6087;48.982;12.064;2023-05-08T05:39:07;12.80;44.10
12053;DHT22;6087;48.982;12.064;2023-05-08T05:41:33;12.90;44.00
12053;DHT22;6087;48.982;12.064;2023-05-08T05:44:00;12.90;44.20
12053;DHT22;6087;48.982;12.064;2023-05-08T05:46:27;12.90;44.70
12053;DHT22;6087;48.982;12.064;2023-05-08T05:49:02;12.90;44.70
12053;DHT22;6087;48.982;12.064;2023-05-08T05:51:29;12.90;45.00
12053;DHT22;6087;48.982;12.064;2023-05-08T05:53:57;13.00;45.10
12053;DHT22;6087;48.982;12.064;2023-05-08T05:56:24;13.00;45.10
12053;DHT22;6087;48.982;12.064;2023-05-08T05:58:51;13.10;45.10
12053;DHT22;6087;48.982;12.064;2023-05-08T06:01:18;13.10;45.60
12053;DHT22;6087;48.982;12.064;2023-05-08T06:03:45;13.10;46.10
12053;DHT22;6087;48.982;12.064;2023-05-08T06:06:12;13.10;45.50
12053;DHT22;6087;48.982;12.064;2023-05-08T06:08:39;13.20;45.60
12053;DHT22;6087;48.982;12.064;2023-05-08T06:11:07;13.20;46.00
12053;DHT22;6087;48.982;12.064;2023-05-08T06:13:34;13.30;45.20
12053;DHT22;6087;48.982;12.064;2023-05-08T06:16:01;13.40;45.30
12053;DHT22;6087;48.982;12.064;2023-05-08T06:18:28;13.40;45.50
12053;DHT22;6087;48.982;12.064;2023-05-08T06:20:55;13.50;45.90
12053;DHT22;6087;48.982;12.064;2023-05-08T06:23:23;13.50;45.90
12053;DHT22;6087;48.982;12.064;2023-05-08T06:25:50;13.60;45.60
12053;DHT22;6087;48.982;12.064;2023-05-08T06:28:18;13.60;45.40
12053;DHT22;6087;48.982;12.064;2023-05-08T06:30:47;13.70;45.70
12053;DHT22;6087;48.982;12.064;2023-05-08T06:33:13;13.70;45.40
12053;DHT22;6087;48.982;12.064;2023-05-08T06:35:40;13.70;45.80
12053;DHT22;6087;48.982;12.064;2023-05-08T06:38:07;13.70;45.60
12053;DHT22;6087;48.982;12.064;2023-05-08T06:40:34;13.70;46.40
12053;DHT22;6087;48.982;12.064;2023-05-08T06:43:01;13.70;46.80
12053;DHT22;6087;48.982;12.064;2023-05-08T06:45:29;13.80;46.70
12053;DHT22;6087;48.982;12.064;2023-05-08T06:47:56;13.80;47.10
12053;DHT22;6087;48.982;12.064;2023-05-08T06:50:23;13.80;47.80
12053;DHT22;6087;48.982;12.064;2023-05-08T06:52:54;13.80;49.10
12053;DHT22;6087;48.982;12.064;2023-05-08T06:55:21;13.90;48.60
12053;DHT22;6087;48.982;12.064;2023-05-08T06:57:51;13.90;49.90
12053;DHT22;6087;48.982;12.064;2023-05-08T07:00:18;13.90;49.00
12053;DHT22;6087;48.982;12.064;2023-05-08T07:02:46;14.00;49.40
12053;DHT22;6087;48.982;12.064;2023-05-08T07:05:13;14.00;50.20
12053;DHT22;6087;48.982;12.064;2023-05-08T07:07:44;14.00;50.20
12053;DHT22;6087;48.982;12.064;2023-05-08T07:10:11;14.10;51.60
12053;DHT22;6087;48.982;12.064;2023-05-08T07:12:38;14.20;52.20
12053;DHT22;6087;48.982;12.064;2023-05-08T07:15:06;14.20;51.20
12053;DHT22;6087;48.982;12.064;2023-05-08T07:17:35;14.30;51.60
12053;DHT22;6087;48.982;12.064;2023-05-08T07:20:04;14.30;51.40
12053;DHT22;6087;48.982;12.064;2023-05-08T07:22:31;14.40;51.00
12053;DHT22;6087;48.982;12.064;2023-05-08T07:24:58;14.40;50.00
12053;DHT22;6087;48.982;12.064;2023-05-08T07:27:25;14.50;49.20
12053;DHT22;6087;48.982;12.064;2023-05-08T07:29:52;14.50;48.50
12053;DHT22;6087;48.982;12.064;2023-05-08T07:32:18;14.50;48.40
12053;DHT22;6087;48.982;12.064;2023-05-08T07:34:45;14.50;48.00
12053;DHT22;6087;48.982;12.064;2023-05-08T07:37:13;14.50;47.40
12053;DHT22;6087;48.982;12.064;2023-05-08T07:39:40;14.60;47.80
12053;DHT22;6087;48.982;12.064;2023-05-08T07:42:07;14.60;47.60
12053;DHT22;6087;48.982;12.064;2023-05-08T07:44:34;14.70;47.80
12053;DHT22;6087;48.982;12.064;2023-05-08T07:47:01;14.70;47.80
12053;DHT22;6087;48.982;12.064;2023-05-08T07:49:28;14.70;47.30
12053;DHT22;6087;48.982;12.064;2023-05-08T07:51:55;14.70;48.30
12053;DHT22;6087;48.982;12.064;2023-05-08T07:54:23;14.70;48.40
12053;DHT22;6087;48.982;12.064;2023-05-08T07:56:50;14.80;47.50
12053;DHT22;6087;48.982;12.064;2023-05-08T07:59:17;14.80;47.20
12053;DHT22;6087;48.982;12.064;2023-05-08T08:01:44;14.80;47.30
12053;DHT22;6087;48.982;12.064;2023-05-08T08:04:12;14.90;47.60
12053;DHT22;6087;48.982;12.064;2023-05-08T08:06:39;14.90;48.00
12053;DHT22;6087;48.982;12.064;2023-05-08T08:09:06;15.00;47.80
12053;DHT22;6087;48.982;12.064;2023-05-08T08:11:34;15.00;47.40
12053;DHT22;6087;48.982;12.064;2023-05-08T08:14:01;15.00;46.80
12053;DHT22;6087;48.982;12.064;2023-05-08T08:16:28;15.00;46.90
12053;DHT22;6087;48.982;12.064;2023-05-08T08:18:57;15.10;47.70
12053;DHT22;6087;48.982;12.064;2023-05-08T08:21:24;15.10;46.70
12053;DHT22;6087;48.982;12.064;2023-05-08T08:23:54;15.10;47.30
12053;DHT22;6087;48.982;12.064;2023-05-08T08:26:21;15.10;46.30
12053;DHT22;6087;48.982;12.064;2023-05-08T08:28:49;15.10;46.50
12053;DHT22;6087;48.982;12.064;2023-05-08T08:31:16;15.10;46.00
12053;DHT22;6087;48.982;12.064;2023-05-08T08:33:47;15.10;46.80
12053;DHT22;6087;48.982;12.064;2023-05-08T08:36:14;15.20;46.80
12053;DHT22;6087;48.982;12.064;2023-05-08T08:38:41;15.20;45.90
12053;DHT22;6087;48.982;12.064;2023-05-08T08:41:08;15.30;46.10
12053;DHT22;6087;48.982;12.064;2023-05-08T08:43:35;15.30;46.60
12053;DHT22;6087;48.982;12.064;2023-05-08T08:46:11;15.40;46.40
12053;DHT22;6087;48.982;12.064;2023-05-08T08:48:43;15.30;46.90
12053;DHT22;6087;48.982;12.064;2023-05-08T08:51:14;15.40;46.50
12053;DHT22;6087;48.982;12.064;2023-05-08T08:53:45;15.30;45.50
12053;DHT22;6087;48.982;12.064;2023-05-08T08:56:15;15.30;46.60
12053;DHT22;6087;48.982;12.064;2023-05-08T08:58:48;15.30;47.30
12053;DHT22;6087;48.982;12.064;2023-05-08T09:01:18;15.40;46.80
12053;DHT22;6087;48.982;12.064;2023-05-08T09:03:46;15.40;46.50
12053;DHT22;6087;48.982;12.064;2023-05-08T09:06:13;15.40;48.30
12053;DHT22;6087;48.982;12.064;2023-05-08T09:08:40;15.50;46.70
12053;DHT22;6087;48.982;12.064;2023-05-08T09:11:10;15.50;46.40
12053;DHT22;6087;48.982;12.064;2023-05-08T09:13:37;15.50;46.50
12053;DHT22;6087;48.982;12.064;2023-05-08T09:16:04;15.50;47.10
12053;DHT22;6087;48.982;12.064;2023-05-08T09:18:33;15.50;46.30
12053;DHT22;6087;48.982;12.064;2023-05-08T09:21:00;15.60;47.00
12053;DHT22;6087;48.982;12.064;2023-05-08T09:23:27;15.60;46.00
12053;DHT22;6087;48.982;12.064;2023-05-08T09:25:54;15.70;46.20
12053;DHT22;6087;48.982;12.064;2023-05-08T09:28:22;15.70;46.50
12053;DHT22;6087;48.982;12.064;2023-05-08T09:30:50;15.70;46.50
12053;DHT22;6087;48.982;12.064;2023-05-08T09:33:18;15.80;46.60
12053;DHT22;6087;48.982;12.064;2023-05-08T09:35:47;15.80;46.30
12053;DHT22;6087;48.982;12.064;2023-05-08T09:38:31;15.80;46.40
12053;DHT22;6087;48.982;12.064;2023-05-08T09:41:05;15.90;46.80
12053;DHT22;6087;48.982;12.064;2023-05-08T09:43:33;16.00;45.90
12053;DHT22;6087;48.982;12.064;2023-05-08T09:46:19;16.00;45.40
12053;DHT22;6087;48.982;12.064;2023-05-08T09:48:46;16.00;45.80
12053;DHT22;6087;48.982;12.064;2023-05-08T09:51:15;16.10;46.90
12053;DHT22;6087;48.982;12.064;2023-05-08T09:53:42;16.10;45.90
12053;DHT22;6087;48.982;12.064;2023-05-08T09:56:09;16.10;46.40
12053;DHT22;6087;48.982;12.064;2023-05-08T09:58:40;16.10;46.20
12053;DHT22;6087;48.982;12.064;2023-05-08T10:01:07;16.20;47.00
12053;DHT22;6087;48.982;12.064;2023-05-08T10:03:46;16.20;46.80
12053;DHT22;6087;48.982;12.064;2023-05-08T10:06:15;16.30;46.50
12053;DHT22;6087;48.982;12.064;2023-05-08T10:08:42;16.30;45.80
12053;DHT22;6087;48.982;12.064;2023-05-08T10:11:12;16.40;46.40
12053;DHT22;6087;48.982;12.064;2023-05-08T10:13:40;16.40;46.70
12053;DHT22;6087;48.982;12.064;2023-05-08T10:18:38;16.50;46.20
12053;DHT22;6087;48.982;12.064;2023-05-08T10:21:08;16.60;45.40
12053;DHT22;6087;48.982;12.064;2023-05-08T10:23:37;16.60;45.70
12053;DHT22;6087;48.982;12.064;2023-05-08T10:26:07;16.70;45.50
12053;DHT22;6087;48.982;12.064;2023-05-08T10:28:41;16.70;45.50
12053;DHT22;6087;48.982;12.064;2023-05-08T10:31:11;16.80;44.90
12053;DHT22;6087;48.982;12.064;2023-05-08T10:33:39;16.90;44.50
12053;DHT22;6087;48.982;12.064;2023-05-08T10:36:07;16.90;44.00
12053;DHT22;6087;48.982;12.064;2023-05-08T10:38:37;17.00;44.30
12053;DHT22;6087;48.982;12.064;2023-05-08T10:41:05;17.00;43.80
12053;DHT22;6087;48.982;12.064;2023-05-08T10:43:32;17.00;43.40
12053;DHT22;6087;48.982;12.064;2023-05-08T10:46:04;17.10;44.60
12053;DHT22;6087;48.982;12.064;2023-05-08T10:48:42;17.20;44.50
12053;DHT22;6087;48.982;12.064;2023-05-08T10:51:15;17.20;45.00
12053;DHT22;6087;48.982;12.064;2023-05-08T10:53:51;17.30;45.00
12053;DHT22;6087;48.982;12.064;2023-05-08T10:56:25;17.40;44.40
12053;DHT22;6087;48.982;12.064;2023-05-08T10:58:55;17.40;43.70
12053;DHT22;6087;48.982;12.064;2023-05-08T11:01:23;17.50;43.60
12053;DHT22;6087;48.982;12.064;2023-05-08T11:03:53;17.50;42.20
12053;DHT22;6087;48.982;12.064;2023-05-08T11:06:44;17.60;43.10
12053;DHT22;6087;48.982;12.064;2023-05-08T11:09:20;17.70;43.50
12053;DHT22;6087;48.982;12.064;2023-05-08T11:14:41;17.80;41.70
12053;DHT22;6087;48.982;12.064;2023-05-08T11:17:09;17.80;41.70
12053;DHT22;6087;48.982;12.064;2023-05-08T11:19:37;17.80;41.40
12053;DHT22;6087;48.982;12.064;2023-05-08T11:22:20;17.90;41.20
12053;DHT22;6087;48.982;12.064;2023-05-08T11:24:52;17.90;40.80
12053;DHT22;6087;48.982;12.064;2023-05-08T11:30:35;18.00;40.80
12053;DHT22;6087;48.982;12.064;2023-05-08T11:33:30;18.00;40.70
12053;DHT22;6087;48.982;12.064;2023-05-08T11:35:58;18.00;39.40
12053;DHT22;6087;48.982;12.064;2023-05-08T11:38:28;17.90;39.00
12053;DHT22;6087;48.982;12.064;2023-05-08T11:41:02;17.90;39.40
12053;DHT22;6087;48.982;12.064;2023-05-08T11:44:14;17.90;38.40
12053;DHT22;6087;48.982;12.064;2023-05-08T11:46:47;17.70;40.30
12053;DHT22;6087;48.982;12.064;2023-05-08T11:49:15;17.70;41.10
12053;DHT22;6087;48.982;12.064;2023-05-08T11:51:44;17.70;41.00
12053;DHT22;6087;48.982;12.064;2023-05-08T11:54:13;17.70;41.00
12053;DHT22;6087;48.982;12.064;2023-05-08T11:56:42;17.70;40.50
12053;DHT22;6087;48.982;12.064;2023-05-08T11:59:10;17.60;40.10
12053;DHT22;6087;48.982;12.064;2023-05-08T12:01:38;17.60;41.40
12053;DHT22;6087;48.982;12.064;2023-05-08T12:04:06;17.60;40.30
12053;DHT22;6087;48.982;12.064;2023-05-08T12:06:34;17.60;40.70
12053;DHT22;6087;48.982;12.064;2023-05-08T12:09:07;17.60;40.10
12053;DHT22;6087;48.982;12.064;2023-05-08T12:11:34;17.60;40.40
12053;DHT22;6087;48.982;12.064;2023-05-08T12:14:03;17.60;41.20
12053;DHT22;6087;48.982;12.064;2023-05-08T12:16:33;17.50;40.60
12053;DHT22;6087;48.982;12.064;2023-05-08T12:19:00;17.60;40.00
12053;DHT22;6087;48.982;12.064;2023-05-08T12:21:27;17.60;40.00
12053;DHT22;6087;48.982;12.064;2023-05-08T12:23:54;17.60;39.70
12053;DHT22;6087;48.982;12.064;2023-05-08T12:26:23;17.60;39.70
12053;DHT22;6087;48.982;12.064;2023-05-08T12:28:54;17.60;39.30
12053;DHT22;6087;48.982;12.064;2023-05-08T12:31:23;17.60;39.80
12053;DHT22;6087;48.982;12.064;2023-05-08T12:33:49;17.60;40.50
12053;DHT22;6087;48.982;12.064;2023-05-08T12:36:17;17.60;39.90
12053;DHT22;6087;48.982;12.064;2023-05-08T12:38:44;17.60;39.40
12053;DHT22;6087;48.982;12.064;2023-05-08T12:41:11;17.60;38.50
12053;DHT22;6087;48.982;12.064;2023-05-08T12:43:38;17.60;37.30
12053;DHT22;6087;48.982;12.064;2023-05-08T12:46:04;17.60;38.30
12053;DHT22;6087;48.982;12.064;2023-05-08T12:48:32;17.70;37.10
12053;DHT22;6087;48.982;12.064;2023-05-08T12:51:04;17.70;36.40
12053;DHT22;6087;48.982;12.064;2023-05-08T12:53:32;17.70;36.10
12053;DHT22;6087;48.982;12.064;2023-05-08T12:56:02;17.70;36.90
12053;DHT22;6087;48.982;12.064;2023-05-08T12:58:29;17.70;37.10
12053;DHT22;6087;48.982;12.064;2023-05-08T13:01:04;17.80;37.60
12053;DHT22;6087;48.982;12.064;2023-05-08T13:03:33;17.80;36.10
12053;DHT22;6087;48.982;12.064;2023-05-08T13:05:59;17.80;35.20
12053;DHT22;6087;48.982;12.064;2023-05-08T13:08:30;17.90;36.60
12053;DHT22;6087;48.982;12.064;2023-05-08T13:10:58;17.90;36.20
12053;DHT22;6087;48.982;12.064;2023-05-08T13:13:26;18.00;35.20
12053;DHT22;6087;48.982;12.064;2023-05-08T13:15:54;18.00;34.90
12053;DHT22;6087;48.982;12.064;2023-05-08T13:18:25;18.00;35.00
12053;DHT22;6087;48.982;12.064;2023-05-08T13:20:54;18.00;36.20
12053;DHT22;6087;48.982;12.064;2023-05-08T13:23:27;18.00;36.50
12053;DHT22;6087;48.982;12.064;2023-05-08T13:25:54;18.00;37.30
12053;DHT22;6087;48.982;12.064;2023-05-08T13:28:21;17.90;37.80
12053;DHT22;6087;48.982;12.064;2023-05-08T13:30:48;17.90;38.00
12053;DHT22;6087;48.982;12.064;2023-05-08T13:33:15;18.00;38.00
12053;DHT22;6087;48.982;12.064;2023-05-08T13:35:41;18.00;36.60
12053;DHT22;6087;48.982;12.064;2023-05-08T13:38:12;18.00;37.20
12053;DHT22;6087;48.982;12.064;2023-05-08T13:40:39;18.00;38.00
12053;DHT22;6087;48.982;12.064;2023-05-08T13:43:15;18.00;37.60
12053;DHT22;6087;48.982;12.064;2023-05-08T13:45:43;18.00;37.80
12053;DHT22;6087;48.982;12.064;2023-05-08T13:48:10;18.00;38.60
12053;DHT22;6087;48.982;12.064;2023-05-08T13:50:39;18.00;38.50
12053;DHT22;6087;48.982;12.064;2023-05-08T13:53:06;18.00;38.60
12053;DHT22;6087;48.982;12.064;2023-05-08T13:55:38;18.10;38.60
12053;DHT22;6087;48.982;12.064;2023-05-08T13:58:06;18.10;37.30
12053;DHT22;6087;48.982;12.064;2023-05-08T14:00:33;18.10;36.60
12053;DHT22;6087;48.982;12.064;2023-05-08T14:03:00;18.10;35.40
12053;DHT22;6087;48.982;12.064;2023-05-08T14:05:27;18.10;34.80
12053;DHT22;6087;48.982;12.064;2023-05-08T14:07:54;18.10;33.60
12053;DHT22;6087;48.982;12.064;2023-05-08T14:10:21;18.10;32.60
12053;DHT22;6087;48.982;12.064;2023-05-08T14:12:49;18.10;33.10
12053;DHT22;6087;48.982;12.064;2023-05-08T14:15:16;18.10;32.90
12053;DHT22;6087;48.982;12.064;2023-05-08T14:17:43;18.10;33.50
12053;DHT22;6087;48.982;12.064;2023-05-08T14:20:10;18.10;33.00
12053;DHT22;6087;48.982;12.064;2023-05-08T14:22:40;18.10;32.10
12053;DHT22;6087;48.982;12.064;2023-05-08T14:25:08;18.10;31.50
12053;DHT22;6087;48.982;12.064;2023-05-08T14:27:35;18.00;31.50
12053;DHT22;6087;48.982;12.064;2023-05-08T14:30:05;18.00;32.70
12053;DHT22;6087;48.982;12.064;2023-05-08T14:32:32;18.00;32.50
12053;DHT22;6087;48.982;12.064;2023-05-08T14:34:58;17.90;32.10
12053;DHT22;6087;48.982;12.064;2023-05-08T14:37:25;17.80;31.90
12053;DHT22;6087;48.982;12.064;2023-05-08T14:39:52;17.80;31.80
12053;DHT22;6087;48.982;12.064;2023-05-08T14:42:20;17.80;32.60
12053;DHT22;6087;48.982;12.064;2023-05-08T14:44:47;17.80;32.30
12053;DHT22;6087;48.982;12.064;2023-05-08T14:47:15;17.80;31.40
12053;DHT22;6087;48.982;12.064;2023-05-08T14:49:42;17.70;31.30
12053;DHT22;6087;48.982;12.064;2023-05-08T14:52:09;17.70;31.60
12053;DHT22;6087;48.982;12.064;2023-05-08T14:54:36;17.70;31.30
12053;DHT22;6087;48.982;12.064;2023-05-08T14:57:03;17.70;31.40
12053;DHT22;6087;48.982;12.064;2023-05-08T14:59:30;17.70;32.10
12053;DHT22;6087;48.982;12.064;2023-05-08T15:02:02;17.70;33.00
12053;DHT22;6087;48.982;12.064;2023-05-08T15:04:31;17.60;31.90
12053;DHT22;6087;48.982;12.064;2023-05-08T15:06:57;17.60;32.70
12053;DHT22;6087;48.982;12.064;2023-05-08T15:09:24;17.60;31.90
12053;DHT22;6087;48.982;12.064;2023-05-08T15:11:51;17.60;31.50
12053;DHT22;6087;48.982;12.064;2023-05-08T15:14:18;17.60;31.90
12053;DHT22;6087;48.982;12.064;2023-05-08T15:16:45;17.60;32.30
12053;DHT22;6087;48.982;12.064;2023-05-08T15:19:12;17.60;31.60
12053;DHT22;6087;48.982;12.064;2023-05-08T15:21:42;17.60;32.50
12053;DHT22;6087;48.982;12.064;2023-05-08T15:24:12;17.60;32.00
12053;DHT22;6087;48.982;12.064;2023-05-08T15:26:39;17.60;31.70
12053;DHT22;6087;48.982;12.064;2023-05-08T15:29:06;17.60;32.70
12053;DHT22;6087;48.982;12.064;2023-05-08T15:31:33;17.60;31.90
12053;DHT22;6087;48.982;12.064;2023-05-08T15:34:00;17.50;31.30
12053;DHT22;6087;48.982;12.064;2023-05-08T15:36:27;17.50;31.80
12053;DHT22;6087;48.982;12.064;2023-05-08T15:38:57;17.50;31.70
12053;DHT22;6087;48.982;12.064;2023-05-08T15:41:24;17.50;32.80
12053;DHT22;6087;48.982;12.064;2023-05-08T15:43:51;17.40;32.30
12053;DHT22;6087;48.982;12.064;2023-05-08T15:46:17;17.40;33.10
12053;DHT22;6087;48.982;12.064;2023-05-08T15:48:44;17.50;33.30
12053;DHT22;6087;48.982;12.064;2023-05-08T15:51:11;17.40;32.60
12053;DHT22;6087;48.982;12.064;2023-05-08T15:53:38;17.40;32.30
12053;DHT22;6087;48.982;12.064;2023-05-08T15:56:06;17.40;33.30